Time;durP1;ratioP1;P1;durP2;ratioP2;P2;SDS_P1;SDS_P2;PMS_P1;PMS_P2;Temp;Humidity;BMP_temperature;BMP_pressure;BME280_temperature;BME280_humidity;BME280_pressure;Samples;Min_cycle;Max_cycle;Signal;HPM_P1;HPM_P2
2022/08/31 00:05:58;;;;;;;4.00;1.40;;;16.60;99.90;;;;;;4808631;29;20567;-74
2022/08/31 00:08:25;;;;;;;2.67;1.30;;;16.60;99.90;;;;;;4807430;29;20237;-75
2022/08/31 00:10:54;;;;;;;4.20;1.50;;;16.60;99.90;;;;;;4807598;29;20207;-75
2022/08/31 00:13:22;;;;;;;2.80;1.30;;;16.60;99.90;;;;;;4807154;29;20286;-74
2022/08/31 00:15:50;;;;;;;3.33;1.37;;;16.60;99.90;;;;;;4807090;29;20294;-76
2022/08/31 00:18:17;;;;;;;6.13;1.70;;;16.60;99.90;;;;;;4807175;29;20227;-73
2022/08/31 00:20:46;;;;;;;6.13;1.43;;;16.70;99.90;;;;;;4816400;29;20203;-74
2022/08/31 00:23:14;;;;;;;8.67;2.27;;;16.60;99.90;;;;;;4825151;29;20206;-74
2022/08/31 00:25:45;;;;;;;4.13;1.60;;;16.60;99.90;;;;;;4825249;29;20665;-75
2022/08/31 00:28:13;;;;;;;2.37;1.47;;;16.60;99.90;;;;;;4825063;29;20719;-75
2022/08/31 00:30:41;;;;;;;3.60;1.40;;;16.60;99.90;;;;;;4825015;29;20258;-76
2022/08/31 00:33:10;;;;;;;3.27;1.50;;;16.60;99.90;;;;;;4826316;29;20278;-74
2022/08/31 00:35:40;;;;;;;3.23;1.50;;;16.60;99.90;;;;;;4825123;29;20307;-75
2022/08/31 00:38:08;;;;;;;2.87;1.43;;;16.60;99.90;;;;;;4825002;29;20309;-75
2022/08/31 00:40:35;;;;;;;8.33;1.90;;;16.60;99.90;;;;;;4825033;29;20231;-76
2022/08/31 00:43:31;;;;;;;9.07;2.00;;;16.50;99.90;;;;;;4825018;29;20625;-74
2022/08/31 00:45:57;;;;;;;2.10;1.10;;;16.50;99.90;;;;;;4809031;29;20210;-74
2022/08/31 00:48:24;;;;;;;3.70;1.60;;;16.40;99.90;;;;;;4824027;29;20596;-73
2022/08/31 00:50:51;;;;;;;2.73;1.47;;;16.40;99.90;;;;;;4823755;29;20638;-74
2022/08/31 00:53:18;;;;;;;2.67;1.50;;;16.30;99.90;;;;;;4808714;29;20225;-75
2022/08/31 00:55:46;;;;;;;1.80;1.23;;;16.30;99.90;;;;;;4823701;29;20679;-74
2022/08/31 00:58:13;;;;;;;4.33;1.53;;;16.30;99.90;;;;;;4823855;29;20743;-75
2022/08/31 01:00:41;;;;;;;3.20;1.70;;;16.20;99.90;;;;;;4808658;29;20202;-74
2022/08/31 01:03:09;;;;;;;4.30;1.53;;;16.20;99.90;;;;;;4823753;29;20227;-74
2022/08/31 01:05:38;;;;;;;5.77;1.80;;;16.20;99.90;;;;;;4823694;29;20198;-75
2022/08/31 01:08:06;;;;;;;6.87;1.80;;;16.20;99.90;;;;;;4823443;29;20732;-74
2022/08/31 01:10:37;;;;;;;2.03;1.40;;;16.20;99.90;;;;;;4823256;29;20674;-75
2022/08/31 01:13:05;;;;;;;2.27;1.63;;;16.10;99.90;;;;;;4808296;29;20215;-76
2022/08/31 01:15:33;;;;;;;3.67;1.40;;;16.10;99.90;;;;;;4823656;29;20306;-75
2022/08/31 01:18:02;;;;;;;2.83;1.47;;;16.10;99.90;;;;;;4808378;29;20210;-76
2022/08/31 01:20:47;;;;;;;2.93;1.40;;;16.00;99.90;;;;;;4808205;29;20202;-77
2022/08/31 01:23:25;;;;;;;2.80;1.30;;;16.10;99.90;;;;;;4830780;29;20214;-77
2022/08/31 01:25:55;;;;;;;5.60;1.70;;;16.10;99.90;;;;;;4824071;29;20203;-76
2022/08/31 01:28:23;;;;;;;4.03;1.67;;;16.10;99.90;;;;;;4824149;29;20230;-77
2022/08/31 01:31:00;;;;;;;4.43;1.40;;;16.00;99.90;;;;;;4824013;29;20238;-75
2022/08/31 01:33:28;;;;;;;4.23;1.40;;;16.00;99.90;;;;;;4823748;29;20550;-76
2022/08/31 01:36:06;;;;;;;2.37;1.27;;;15.90;99.90;;;;;;4824374;29;20199;-76
2022/08/31 01:38:35;;;;;;;3.70;1.40;;;15.90;99.90;;;;;;4824064;29;20249;-76
2022/08/31 01:41:03;;;;;;;8.07;1.70;;;15.80;99.90;;;;;;4825417;29;20624;-76
2022/08/31 01:43:32;;;;;;;3.77;1.70;;;15.80;99.90;;;;;;4825180;29;20213;-76
2022/08/31 01:46:01;;;;;;;5.47;1.90;;;15.80;99.90;;;;;;4825646;29;20205;-76
2022/08/31 01:48:31;;;;;;;5.13;1.63;;;15.70;99.90;;;;;;4823808;29;20638;-76
2022/08/31 01:51:00;;;;;;;3.70;1.43;;;15.70;99.90;;;;;;4823571;29;20284;-76
2022/08/31 01:53:27;;;;;;;5.57;1.80;;;15.60;99.90;;;;;;4823838;29;20207;-76
2022/08/31 01:55:54;;;;;;;2.33;1.20;;;15.60;99.90;;;;;;4823847;29;20321;-75
2022/08/31 01:58:21;;;;;;;4.67;1.57;;;15.50;99.90;;;;;;4823846;29;20289;-76
2022/08/31 02:00:48;;;;;;;4.30;1.50;;;15.50;99.90;;;;;;4823535;29;20207;-75
2022/08/31 02:03:15;;;;;;;4.73;1.47;;;15.50;99.90;;;;;;4824826;29;20191;-74
2022/08/31 02:05:42;;;;;;;4.03;1.50;;;15.40;99.90;;;;;;4823570;29;20246;-76
2022/08/31 02:08:10;;;;;;;4.10;1.40;;;15.40;99.90;;;;;;4824926;29;20249;-76
2022/08/31 02:10:37;;;;;;;3.00;1.30;;;15.40;99.90;;;;;;4824757;29;20569;-76
2022/08/31 02:13:04;;;;;;;3.77;1.30;;;15.40;99.90;;;;;;4824905;29;20572;-76
2022/08/31 02:15:32;;;;;;;4.17;1.47;;;15.40;99.90;;;;;;4823546;29;20234;-75
2022/08/31 02:17:59;;;;;;;9.97;2.10;;;15.40;99.90;;;;;;4824731;29;20294;-74
2022/08/31 02:20:28;;;;;;;3.90;1.53;;;15.30;99.90;;;;;;4824902;29;20227;-76
2022/08/31 02:22:55;;;;;;;6.13;2.00;;;15.30;99.90;;;;;;4822754;29;20298;-76
2022/08/31 02:25:22;;;;;;;3.97;1.33;;;15.20;99.90;;;;;;4823738;29;20306;-75
2022/08/31 02:27:48;;;;;;;3.50;1.23;;;15.20;99.90;;;;;;4823687;29;20237;-75
2022/08/31 02:30:18;;;;;;;10.60;2.10;;;15.20;99.90;;;;;;4824696;29;20230;-75
2022/08/31 02:32:45;;;;;;;4.77;1.60;;;15.20;99.90;;;;;;4823200;29;20214;-75
2022/08/31 02:35:12;;;;;;;3.93;1.60;;;15.10;99.90;;;;;;4823360;29;20725;-75
2022/08/31 02:37:39;;;;;;;2.70;1.80;;;15.10;99.90;;;;;;4823321;29;20221;-75
2022/08/31 02:40:08;;;;;;;3.50;1.70;;;15.10;99.90;;;;;;4823163;29;20231;-75
2022/08/31 02:42:39;;;;;;;4.67;1.57;;;15.10;99.90;;;;;;4823108;29;20289;-76
2022/08/31 02:45:20;;;;;;;5.63;1.77;;;15.20;99.90;;;;;;4823183;29;20538;-75
2022/08/31 02:47:46;;;;;;;2.80;1.60;;;15.20;99.90;;;;;;4823081;29;20697;-75
2022/08/31 02:50:13;;;;;;;5.77;1.73;;;15.20;99.90;;;;;;4823131;29;20709;-74
2022/08/31 02:52:40;;;;;;;4.60;1.73;;;15.10;99.90;;;;;;4822998;29;20203;-75
2022/08/31 02:55:07;;;;;;;5.10;1.90;;;15.10;99.90;;;;;;4822548;29;20202;-75
2022/08/31 02:57:34;;;;;;;6.40;2.10;;;15.20;99.90;;;;;;4823078;29;20233;-76
2022/08/31 03:00:01;;;;;;;3.47;1.57;;;15.10;99.90;;;;;;4823284;29;20242;-76
2022/08/31 03:02:28;;;;;;;3.43;1.57;;;15.10;99.90;;;;;;4822770;29;20220;-76
2022/08/31 03:05:00;;;;;;;4.00;1.77;;;15.20;99.90;;;;;;4823218;29;20214;-76
2022/08/31 03:07:27;;;;;;;4.77;1.47;;;15.10;99.90;;;;;;4823660;29;20700;-76
2022/08/31 03:09:54;;;;;;;4.50;1.70;;;15.20;99.90;;;;;;4807864;29;20305;-76
2022/08/31 03:12:21;;;;;;;2.33;1.60;;;15.20;99.90;;;;;;4822499;29;20214;-76
2022/08/31 03:14:48;;;;;;;3.17;1.43;;;15.20;99.90;;;;;;4823662;29;20221;-77
2022/08/31 03:17:15;;;;;;;4.57;1.40;;;15.20;99.90;;;;;;4822970;29;20206;-76
2022/08/31 03:19:42;;;;;;;5.93;1.70;;;15.30;99.90;;;;;;4822713;29;20335;-78
2022/08/31 03:22:09;;;;;;;1.87;1.20;;;15.30;99.90;;;;;;4822454;29;20226;-76
2022/08/31 03:24:36;;;;;;;4.67;1.40;;;15.40;99.90;;;;;;4822931;29;20748;-75
2022/08/31 03:27:03;;;;;;;2.47;1.40;;;15.40;99.90;;;;;;4822882;29;20226;-76
2022/08/31 03:29:30;;;;;;;5.07;1.60;;;15.40;99.90;;;;;;4822727;29;20329;-77
2022/08/31 03:31:57;;;;;;;6.60;1.93;;;15.40;99.90;;;;;;4822484;29;20640;-75
2022/08/31 03:34:23;;;;;;;3.70;1.30;;;15.50;99.90;;;;;;4824053;29;20207;-77
2022/08/31 03:36:50;;;;;;;4.00;1.60;;;15.50;99.90;;;;;;4827195;29;20199;-75
2022/08/31 03:39:17;;;;;;;1.67;1.20;;;15.50;99.90;;;;;;4827171;29;20231;-76
2022/08/31 03:41:44;;;;;;;8.57;2.03;;;15.50;99.90;;;;;;4825766;29;20199;-75
2022/08/31 03:44:11;;;;;;;6.83;1.60;;;15.50;99.90;;;;;;4826171;29;20213;-75
2022/08/31 03:46:44;;;;;;;6.60;1.60;;;15.50;99.90;;;;;;4826530;29;20242;-76
2022/08/31 03:49:11;;;;;;;3.13;1.30;;;15.50;99.90;;;;;;4825761;29;20234;-74
2022/08/31 03:51:38;;;;;;;3.37;1.50;;;15.60;99.90;;;;;;4825468;29;20234;-75
2022/08/31 03:54:04;;;;;;;2.50;1.10;;;15.60;99.90;;;;;;4825492;29;20215;-76
2022/08/31 03:56:40;;;;;;;3.63;1.27;;;15.60;99.90;;;;;;4825648;29;20662;-75
2022/08/31 03:59:07;;;;;;;2.20;1.20;;;15.60;99.90;;;;;;4827183;29;20600;-75
2022/08/31 04:01:35;;;;;;;3.70;1.10;;;15.70;99.90;;;;;;4825901;29;20576;-74
2022/08/31 04:04:03;;;;;;;4.97;1.27;;;15.80;99.90;;;;;;4825844;29;20645;-74
2022/08/31 04:06:30;;;;;;;7.03;1.67;;;15.80;99.90;;;;;;4826661;29;20263;-77
2022/08/31 04:08:57;;;;;;;6.20;1.40;;;15.70;99.90;;;;;;4825475;29;20233;-75
2022/08/31 04:11:26;;;;;;;3.70;1.37;;;15.80;99.90;;;;;;4825449;29;20238;-74
2022/08/31 04:14:14;;;;;;;3.67;1.40;;;15.80;99.90;;;;;;4824878;29;20210;-75
2022/08/31 04:16:42;;;;;;;3.67;1.20;;;15.80;99.90;;;;;;4826444;29;20187;-75
2022/08/31 04:19:13;;;;;;;2.40;1.03;;;15.80;99.90;;;;;;4825619;29;20207;-75
2022/08/31 04:21:42;;;;;;;2.27;1.23;;;15.90;99.90;;;;;;4826338;29;20282;-75
2022/08/31 04:24:10;;;;;;;4.40;1.20;;;15.90;99.90;;;;;;4826521;29;20256;-75
2022/08/31 04:26:42;;;;;;;2.73;1.00;;;16.00;99.90;;;;;;4825159;29;20207;-75
2022/08/31 04:29:09;;;;;;;2.27;1.10;;;16.00;99.90;;;;;;4825209;29;20589;-74
2022/08/31 04:31:39;;;;;;;4.93;1.37;;;16.00;99.90;;;;;;4824970;29;20220;-75
2022/08/31 04:34:06;;;;;;;3.53;1.30;;;16.00;99.90;;;;;;4824989;29;20669;-75
2022/08/31 04:36:33;;;;;;;3.67;1.40;;;16.10;99.90;;;;;;4825119;29;20646;-73
2022/08/31 04:39:02;;;;;;;2.33;1.17;;;16.10;99.90;;;;;;4825561;29;20599;-76
2022/08/31 04:41:31;;;;;;;1.37;0.90;;;16.10;99.90;;;;;;4825361;29;20203;-75
2022/08/31 04:44:00;;;;;;;2.97;1.20;;;16.10;99.90;;;;;;4825107;29;20209;-74
2022/08/31 04:46:27;;;;;;;3.20;1.13;;;16.10;99.90;;;;;;4824400;29;20622;-75
2022/08/31 04:48:55;;;;;;;4.97;1.30;;;16.10;99.90;;;;;;4826060;29;20777;-75
2022/08/31 04:51:30;;;;;;;2.80;1.10;;;16.20;99.90;;;;;;4825885;29;20549;-75
2022/08/31 04:53:57;;;;;;;5.33;1.10;;;16.20;99.90;;;;;;4826108;29;20202;-75
2022/08/31 04:56:27;;;;;;;2.87;1.10;;;16.20;99.90;;;;;;4809734;29;20301;-74
2022/08/31 04:58:57;;;;;;;3.73;1.40;;;16.20;99.90;;;;;;4809926;29;20227;-75
2022/08/31 05:01:27;;;;;;;3.00;1.23;;;16.30;99.90;;;;;;4809666;29;20202;-75
2022/08/31 05:04:09;;;;;;;2.77;1.00;;;16.30;99.90;;;;;;4809384;29;20282;-74
2022/08/31 05:06:39;;;;;;;2.90;1.17;;;16.40;99.90;;;;;;4809182;29;20735;-75
2022/08/31 05:09:09;;;;;;;4.80;1.20;;;16.40;99.90;;;;;;4825438;29;20728;-74
2022/08/31 05:11:37;;;;;;;7.10;1.70;;;16.50;99.90;;;;;;4809161;29;20212;-75
2022/08/31 05:14:05;;;;;;;4.20;1.07;;;16.50;99.90;;;;;;4808995;29;20223;-74
2022/08/31 05:16:33;;;;;;;4.57;1.20;;;16.50;99.90;;;;;;4809265;29;20243;-75
2022/08/31 05:19:00;;;;;;;2.27;1.10;;;16.60;99.90;;;;;;4809521;29;20207;-74
2022/08/31 05:21:33;;;;;;;6.47;1.27;;;16.50;99.90;;;;;;4809146;29;20305;-75
2022/08/31 05:24:04;;;;;;;2.17;1.10;;;16.50;99.90;;;;;;4809015;29;20666;-75
2022/08/31 05:26:39;;;;;;;4.90;2.00;;;16.50;99.90;;;;;;4809198;29;20211;-75
2022/08/31 05:29:09;;;;;;;3.47;1.43;;;16.60;99.90;;;;;;4808952;29;20226;-75
2022/08/31 05:31:37;;;;;;;4.90;1.20;;;16.60;99.90;;;;;;4809296;29;20290;-76
2022/08/31 05:34:05;;;;;;;3.70;1.30;;;16.60;99.90;;;;;;4809475;29;20214;-76
2022/08/31 05:36:33;;;;;;;2.33;1.10;;;16.70;99.90;;;;;;4808992;29;20217;-75
2022/08/31 05:39:00;;;;;;;5.40;1.30;;;16.80;99.90;;;;;;4809048;29;20723;-74
2022/08/31 05:41:29;;;;;;;3.37;1.20;;;16.90;99.90;;;;;;4808477;29;20314;-74
2022/08/31 05:43:56;;;;;;;2.87;1.13;;;16.90;99.90;;;;;;4825251;29;20199;-77
2022/08/31 05:46:23;;;;;;;3.80;1.40;;;16.90;99.90;;;;;;4809122;29;20207;-74
2022/08/31 05:48:49;;;;;;;2.20;1.10;;;16.80;99.90;;;;;;4808892;29;20238;-74
2022/08/31 05:51:17;;;;;;;3.27;1.20;;;16.70;99.90;;;;;;4824760;29;20309;-73
2022/08/31 05:53:45;;;;;;;2.43;1.07;;;16.70;99.90;;;;;;4808485;29;20222;-75
2022/08/31 05:56:15;;;;;;;2.40;1.10;;;16.80;99.90;;;;;;4808174;29;20213;-74
2022/08/31 05:58:46;;;;;;;4.47;1.03;;;16.90;99.90;;;;;;4807605;29;20211;-73
2022/08/31 06:01:31;;;;;;;3.33;1.23;;;16.90;99.90;;;;;;4808377;29;20234;-73
2022/08/31 06:03:59;;;;;;;7.40;2.53;;;16.80;99.90;;;;;;4808316;29;20214;-73
2022/08/31 06:06:27;;;;;;;4.07;1.40;;;17.00;99.90;;;;;;4808127;29;20203;-74
2022/08/31 06:08:54;;;;;;;4.03;1.30;;;17.10;99.90;;;;;;4808176;29;20227;-75
2022/08/31 06:11:25;;;;;;;3.63;1.27;;;17.10;99.90;;;;;;4808066;29;20207;-73
2022/08/31 06:13:55;;;;;;;2.40;1.00;;;17.10;99.90;;;;;;4808282;29;20305;-73
2022/08/31 06:16:22;;;;;;;4.50;1.10;;;17.30;99.90;;;;;;4808622;29;20213;-72
2022/08/31 06:18:52;;;;;;;3.50;1.10;;;17.40;99.90;;;;;;4808446;29;20206;-72
2022/08/31 06:21:29;;;;;;;3.77;1.57;;;17.50;99.90;;;;;;4824330;29;20222;-73
2022/08/31 06:23:58;;;;;;;4.87;1.57;;;17.50;99.90;;;;;;4806474;29;20201;-71
2022/08/31 06:26:27;;;;;;;3.43;1.30;;;17.70;99.90;;;;;;4808091;29;20239;-71
2022/08/31 06:28:58;;;;;;;4.07;1.27;;;17.70;99.90;;;;;;4807783;29;20226;-71
2022/08/31 06:31:28;;;;;;;2.20;1.00;;;17.60;99.90;;;;;;4807572;29;20293;-72
2022/08/31 06:33:55;;;;;;;2.23;1.17;;;17.70;99.90;;;;;;4807307;29;20211;-72
2022/08/31 06:36:24;;;;;;;2.73;1.17;;;17.80;99.90;;;;;;4824720;29;20206;-72
2022/08/31 06:38:54;;;;;;;3.77;1.27;;;17.90;99.90;;;;;;4824571;29;20616;-73
2022/08/31 06:41:26;;;;;;;6.47;1.80;;;17.90;99.90;;;;;;4807699;29;20294;-73
2022/08/31 06:43:53;;;;;;;2.00;1.17;;;17.80;99.90;;;;;;4796403;29;20214;-72
2022/08/31 06:46:22;;;;;;;3.03;1.17;;;17.80;99.90;;;;;;4807436;29;20649;-74
2022/08/31 06:48:53;;;;;;;3.00;1.10;;;17.80;99.90;;;;;;4807612;29;20218;-74
2022/08/31 06:51:24;;;;;;;2.13;0.80;;;17.80;99.90;;;;;;4817342;29;20231;-72
2022/08/31 06:53:54;;;;;;;1.70;1.00;;;17.90;99.90;;;;;;4824237;29;20215;-73
2022/08/31 06:56:24;;;;;;;4.20;1.10;;;18.10;99.90;;;;;;4822764;29;20352;-73
2022/08/31 06:58:52;;;;;;;2.97;1.30;;;18.10;99.90;;;;;;4819817;29;20673;-71
2022/08/31 07:01:27;;;;;;;2.23;1.00;;;18.20;99.90;;;;;;4822455;29;20241;-71
2022/08/31 07:04:09;;;;;;;2.47;1.20;;;18.20;99.90;;;;;;4822093;29;20213;-73
2022/08/31 07:06:39;;;;;;;2.10;0.80;;;18.30;99.90;;;;;;4822171;29;20394;-74
2022/08/31 07:09:09;;;;;;;4.23;0.80;;;18.30;99.90;;;;;;4824819;29;20262;-72
2022/08/31 07:11:40;;;;;;;1.47;0.73;;;18.30;99.90;;;;;;4828242;29;20230;-74
2022/08/31 07:14:13;;;;;;;2.67;0.77;;;18.30;99.90;;;;;;4828558;29;20306;-74
2022/08/31 07:16:41;;;;;;;4.47;1.20;;;18.50;99.90;;;;;;4828201;29;20286;-75
2022/08/31 07:19:09;;;;;;;4.80;1.17;;;18.50;99.90;;;;;;4828168;29;20203;-73
2022/08/31 07:21:45;;;;;;;12.73;1.20;;;18.70;99.90;;;;;;4829490;29;20199;-73
2022/08/31 07:24:16;;;;;;;5.20;1.30;;;18.70;99.90;;;;;;4828172;29;20252;-73
2022/08/31 07:26:49;;;;;;;3.03;0.93;;;18.80;99.90;;;;;;4828405;29;20207;-74
2022/08/31 07:29:19;;;;;;;3.40;0.70;;;18.80;99.90;;;;;;4829082;29;20222;-74
2022/08/31 07:31:47;;;;;;;1.17;0.60;;;18.70;99.90;;;;;;4827958;29;20202;-73
2022/08/31 07:34:18;;;;;;;2.77;0.90;;;18.50;99.90;;;;;;4828229;29;20207;-74
2022/08/31 07:42:31;;;;;;;2.00;0.80;;;18.60;99.90;;;;;;4828044;29;20301;-75
2022/08/31 07:45:00;;;;;;;1.90;0.80;;;18.70;99.90;;;;;;4828096;29;20206;-78
2022/08/31 07:47:28;;;;;;;4.20;1.00;;;18.80;99.90;;;;;;4828201;29;20199;-74
2022/08/31 07:49:58;;;;;;;3.60;0.77;;;19.00;99.90;;;;;;4827706;29;20230;-74
2022/08/31 07:52:31;;;;;;;2.33;0.97;;;19.10;99.90;;;;;;4829392;29;20241;-73
2022/08/31 07:55:05;;;;;;;3.50;0.87;;;19.20;99.90;;;;;;4813154;29;20210;-72
2022/08/31 07:57:47;;;;;;;2.67;0.83;;;19.40;99.90;;;;;;4812801;29;20239;-74
2022/08/31 08:00:22;;;;;;;2.10;0.70;;;19.50;99.90;;;;;;4812479;29;20215;-71
2022/08/31 08:02:50;;;;;;;3.70;0.80;;;19.40;99.90;;;;;;4812746;29;20198;-73
2022/08/31 08:05:23;;;;;;;3.37;0.80;;;19.50;99.90;;;;;;4813051;29;20213;-76
2022/08/31 08:08:03;;;;;;;2.17;0.80;;;19.60;99.90;;;;;;4813046;29;20201;-73
2022/08/31 08:10:39;;;;;;;1.40;0.80;;;19.70;99.90;;;;;;4813069;29;20267;-74
2022/08/31 08:13:07;;;;;;;2.80;0.70;;;20.00;99.90;;;;;;4812695;29;20191;-74
2022/08/31 08:15:36;;;;;;;4.60;1.20;;;20.10;99.90;;;;;;4812685;29;20259;-74
2022/08/31 08:18:06;;;;;;;8.07;1.10;;;20.00;99.90;;;;;;4829039;29;20270;-73
2022/08/31 08:20:33;;;;;;;4.27;0.90;;;20.30;99.90;;;;;;4810754;29;20207;-72
2022/08/31 08:23:14;;;;;;;1.57;0.70;;;20.90;99.90;;;;;;4826328;29;20625;-74
2022/08/31 08:25:45;;;;;;;2.47;0.70;;;21.50;99.90;;;;;;4809947;29;20238;-73
2022/08/31 08:28:16;;;;;;;1.23;0.57;;;22.30;99.90;;;;;;4826320;29;20263;-73
2022/08/31 08:31:21;;;;;;;1.23;0.70;;;22.90;99.90;;;;;;4806979;29;20668;-77
2022/08/31 08:34:00;;;;;;;2.17;0.70;;;23.90;99.90;;;;;;4809710;29;20210;-77
2022/08/31 08:36:35;;;;;;;1.87;0.87;;;24.40;99.90;;;;;;4825950;29;20346;-75
2022/08/31 08:39:19;;;;;;;1.13;0.63;;;24.60;99.90;;;;;;4809883;29;20230;-77
2022/08/31 08:41:47;;;;;;;1.97;0.70;;;24.40;99.90;;;;;;4825837;29;20279;-75
2022/08/31 08:44:16;;;;;;;1.67;0.73;;;23.60;99.90;;;;;;4809345;29;20203;-76
2022/08/31 08:46:49;;;;;;;1.07;0.60;;;23.50;99.90;;;;;;4794633;29;20210;-78
2022/08/31 08:49:17;;;;;;;2.33;0.93;;;24.00;99.90;;;;;;4825728;29;20239;-76
2022/08/31 08:51:46;;;;;;;3.37;0.77;;;24.10;99.90;;;;;;4807119;29;20298;-75
2022/08/31 08:54:18;;;;;;;2.93;0.97;;;24.20;99.90;;;;;;4824503;29;20211;-77
2022/08/31 08:57:33;;;;;;;2.27;0.90;;;24.20;99.90;;;;;;4809216;29;20206;-77
2022/08/31 09:00:08;;;;;;;2.57;0.80;;;24.10;99.90;;;;;;4825483;29;20227;-79
2022/08/31 09:03:00;;;;;;;1.80;0.93;;;24.80;99.90;;;;;;4809292;29;20206;-77
2022/08/31 09:05:51;;;;;;;1.67;0.90;;;25.30;98.40;;;;;;4824336;29;20275;-76
2022/08/31 09:09:09;;;;;;;1.35;0.50;;;25.50;98.10;;;;;;4812803;29;20207;-77
2022/08/31 09:12:17;;;;;;;1.13;0.73;;;25.80;95.30;;;;;;4809353;29;20314;-76
2022/08/31 09:14:50;;;;;;;0.85;0.68;;;25.90;95.30;;;;;;4824156;29;20214;-74
2022/08/31 09:17:45;;;;;;;2.80;0.70;;;26.10;95.00;;;;;;4808937;29;20298;-74
2022/08/31 09:20:14;;;;;;;1.45;0.63;;;26.30;93.40;;;;;;4825439;29;20290;-74
2022/08/31 09:22:45;;;;;;;1.52;0.70;;;26.00;93.00;;;;;;4823923;29;20623;-75
2022/08/31 09:25:36;;;;;;;1.45;0.70;;;26.10;92.60;;;;;;4809168;29;20207;-75
2022/08/31 09:28:09;;;;;;;2.20;0.68;;;26.20;90.80;;;;;;4825595;29;20187;-74
2022/08/31 09:30:42;;;;;;;1.17;0.70;;;26.10;91.30;;;;;;4808803;29;20234;-76
2022/08/31 09:33:31;;;;;;;3.08;0.60;;;26.10;90.70;;;;;;4824018;29;20203;-73
2022/08/31 09:36:21;;;;;;;1.50;0.77;;;26.30;89.80;;;;;;4824128;29;20237;-74
2022/08/31 09:38:49;;;;;;;1.88;0.73;;;26.40;87.90;;;;;;4825425;29;20278;-73
2022/08/31 09:41:36;;;;;;;1.55;0.63;;;26.20;86.90;;;;;;4825441;29;20611;-74
2022/08/31 09:44:30;;;;;;;4.20;0.95;;;26.20;86.80;;;;;;4809931;29;20297;-74
2022/08/31 09:47:50;;;;;;;0.95;0.73;;;26.10;83.00;;;;;;4823802;29;20290;-74
2022/08/31 09:50:45;;;;;;;2.85;0.60;;;26.30;79.90;;;;;;4823545;29;20338;-73
2022/08/31 09:56:19;;;;;;;0.98;0.47;;;27.00;80.80;;;;;;4823913;29;20679;-74
2022/08/31 09:59:00;;;;;;;2.03;0.80;;;27.60;78.90;;;;;;4823837;29;20623;-73
2022/08/31 10:01:43;;;;;;;2.08;0.60;;;28.20;76.60;;;;;;4823498;29;20209;-74
2022/08/31 10:04:22;;;;;;;1.95;0.60;;;28.10;72.60;;;;;;4825010;29;20679;-74
2022/08/31 10:06:54;;;;;;;0.95;0.50;;;28.20;73.10;;;;;;4823579;29;20221;-74
2022/08/31 10:09:34;;;;;;;1.95;0.70;;;28.30;72.90;;;;;;4823918;29;20237;-74
2022/08/31 10:12:10;;;;;;;1.25;0.60;;;28.40;70.80;;;;;;4823658;29;20269;-74
2022/08/31 10:14:49;;;;;;;2.75;0.70;;;28.20;70.40;;;;;;4823538;29;20202;-74
2022/08/31 10:17:25;;;;;;;2.15;0.50;;;28.30;70.60;;;;;;4823494;29;20726;-73
2022/08/31 10:20:18;;;;;;;9.25;1.42;;;28.60;66.40;;;;;;4823197;29;20637;-75
2022/08/31 10:22:49;;;;;;;3.92;0.70;;;28.90;61.80;;;;;;4823093;29;20301;-73
2022/08/31 10:25:37;;;;;;;2.83;0.50;;;29.60;64.80;;;;;;4823301;29;20586;-77
2022/08/31 10:28:10;;;;;;;1.25;0.70;;;29.50;62.20;;;;;;4823406;29;20206;-73
2022/08/31 10:30:58;;;;;;;5.60;0.57;;;29.60;63.20;;;;;;4822915;29;20268;-72
2022/08/31 10:35:02;;;;;;;1.67;0.65;;;29.80;63.10;;;;;;4823057;29;20202;-73
2022/08/31 10:36:29;;;;;;;4.03;0.85;;;30.10;61.70;;;;;;4823286;29;20305;-72
2022/08/31 10:38:57;;;;;;;1.88;0.50;;;30.20;57.50;;;;;;4822972;29;20287;-75
2022/08/31 10:41:34;;;;;;;2.00;0.50;;;30.80;57.00;;;;;;4823150;29;20704;-74
2022/08/31 10:44:22;;;;;;;4.53;0.70;;;30.50;53.60;;;;;;4822200;29;20249;-75
2022/08/31 10:46:56;;;;;;;1.00;0.68;;;30.70;54.70;;;;;;4823171;29;20322;-75
2022/08/31 10:49:25;;;;;;;2.88;0.80;;;30.60;54.40;;;;;;4822827;29;20206;-73
2022/08/31 10:52:28;;;;;;;1.70;0.68;;;31.20;54.80;;;;;;4822665;29;20239;-73
2022/08/31 10:55:36;;;;;;;1.20;0.47;;;30.80;55.60;;;;;;4823091;29;20233;-72
2022/08/31 10:58:17;;;;;;;1.00;0.60;;;30.80;55.60;;;;;;4753113;30;20216;-74
2022/08/31 11:00:48;;;;;;;2.35;0.60;;;31.00;55.50;;;;;;4752509;30;20200;-72
2022/08/31 11:03:36;;;;;;;2.33;0.80;;;31.60;55.50;;;;;;4752898;30;20656;-72
2022/08/31 11:06:06;;;;;;;0.73;0.60;;;31.10;54.00;;;;;;4767622;30;20205;-74
2022/08/31 11:08:56;;;;;;;1.30;0.60;;;30.40;54.30;;;;;;4767784;30;20212;-76
2022/08/31 11:12:03;;;;;;;1.23;0.80;;;29.70;55.80;;;;;;4767419;30;20239;-77
2022/08/31 11:15:05;;;;;;;3.72;0.63;;;29.70;56.90;;;;;;4732636;30;20214;-74
2022/08/31 11:18:05;;;;;;;1.05;0.50;;;30.00;56.50;;;;;;4731976;30;20209;-78
2022/08/31 11:20:56;;;;;;;0.80;0.52;;;30.30;56.10;;;;;;4732357;30;20214;-73
2022/08/31 11:23:47;;;;;;;2.08;0.77;;;29.90;55.50;;;;;;4732164;30;20305;-77
2022/08/31 11:26:37;;;;;;;1.88;0.80;;;28.90;56.50;;;;;;4732111;30;20705;-75
2022/08/31 11:29:40;;;;;;;1.98;0.68;;;28.90;57.80;;;;;;4732416;30;20330;-75
2022/08/31 11:32:22;;;;;;;1.25;0.65;;;29.60;56.40;;;;;;4715139;30;20314;-75
2022/08/31 11:34:52;;;;;;;2.10;0.70;;;30.40;55.00;;;;;;4785498;30;20314;-72
2022/08/31 11:37:45;;;;;;;0.95;0.50;;;31.20;54.50;;;;;;4770435;30;20205;-73
2022/08/31 11:40:40;;;;;;;2.67;0.80;;;30.30;53.80;;;;;;4785301;29;20224;-74
2022/08/31 11:43:35;;;;;;;1.25;0.88;;;29.00;57.30;;;;;;4770257;30;20289;-73
2022/08/31 11:46:38;;;;;;;3.47;0.80;;;28.70;59.00;;;;;;4714657;30;20297;-73
2022/08/31 11:49:06;;;;;;;1.05;0.60;;;29.70;56.20;;;;;;4714389;30;20218;-73
2022/08/31 11:51:45;;;;;;;2.65;0.57;;;31.00;54.40;;;;;;4727629;30;20284;-72
2022/08/31 11:54:25;;;;;;;1.10;0.50;;;31.90;51.10;;;;;;4750002;30;20665;-73
2022/08/31 11:56:55;;;;;;;1.00;0.50;;;33.10;49.40;;;;;;4737294;30;20212;-76
2022/08/31 11:59:34;;;;;;;1.52;0.70;;;34.10;48.50;;;;;;4738354;30;20210;-73
2022/08/31 12:02:19;;;;;;;4.38;0.90;;;34.80;47.10;;;;;;4738009;30;20237;-73
2022/08/31 12:04:52;;;;;;;0.95;0.60;;;35.00;46.80;;;;;;4738217;30;20210;-75
2022/08/31 12:07:29;;;;;;;1.27;0.60;;;34.40;46.50;;;;;;4738415;30;20208;-74
2022/08/31 12:10:15;;;;;;;1.02;0.60;;;33.50;47.30;;;;;;4752925;30;20324;-74
2022/08/31 12:13:17;;;;;;;2.50;0.60;;;32.20;48.90;;;;;;4752755;30;20583;-74
2022/08/31 12:16:08;;;;;;;1.65;0.60;;;31.10;50.70;;;;;;4752670;30;20198;-74
2022/08/31 12:18:47;;;;;;;0.70;0.50;;;30.00;52.60;;;;;;4752634;30;20213;-73
2022/08/31 12:25:16;;;;;;;2.28;0.68;;;28.60;56.80;;;;;;4840395;29;20317;-74
2022/08/31 12:28:11;;;;;;;1.90;0.70;;;29.00;55.80;;;;;;4825516;29;20226;-71
2022/08/31 12:30:51;;;;;;;1.10;0.60;;;28.00;56.00;;;;;;4826266;29;20818;-72
2022/08/31 12:33:22;;;;;;;4.25;0.82;;;27.00;58.50;;;;;;4824802;29;20214;-72
2022/08/31 12:35:56;;;;;;;1.23;0.85;;;26.60;60.10;;;;;;4825011;29;20206;-71
2022/08/31 12:38:29;;;;;;;1.55;0.80;;;26.00;61.20;;;;;;4825043;29;20207;-70
2022/08/31 12:40:56;;;;;;;1.40;0.60;;;25.40;61.50;;;;;;4824862;29;20223;-73
2022/08/31 12:43:27;;;;;;;3.00;0.90;;;25.60;62.40;;;;;;4824924;29;20211;-73
2022/08/31 12:46:15;;;;;;;2.17;0.75;;;26.40;60.80;;;;;;4825322;29;20297;-75
2022/08/31 12:48:42;;;;;;;2.10;0.60;;;27.30;58.40;;;;;;4824421;29;20211;-71
2022/08/31 12:51:50;;;;;;;2.17;0.80;;;28.10;57.10;;;;;;4821913;29;20590;-72
2022/08/31 12:54:54;;;;;;;2.10;0.70;;;29.10;55.80;;;;;;4754611;30;20217;-73
2022/08/31 12:57:46;;;;;;;1.60;0.77;;;29.80;54.40;;;;;;4754681;30;20213;-74
2022/08/31 13:00:18;;;;;;;1.33;0.55;;;30.40;54.30;;;;;;4754588;30;20207;-74
2022/08/31 13:02:50;;;;;;;2.20;0.75;;;30.80;52.60;;;;;;4769343;30;20227;-73
2022/08/31 13:05:33;;;;;;;2.67;0.85;;;30.50;52.80;;;;;;4769778;30;20619;-72
2022/08/31 13:08:00;;;;;;;1.40;0.70;;;29.90;53.60;;;;;;4754505;30;20216;-72
2022/08/31 13:10:35;;;;;;;5.22;0.80;;;29.20;54.60;;;;;;4769514;30;20659;-73
2022/08/31 13:13:07;;;;;;;1.20;0.80;;;29.10;54.90;;;;;;4769695;30;20594;-73
2022/08/31 13:15:36;;;;;;;2.13;0.88;;;29.00;55.00;;;;;;4769538;30;20256;-73
2022/08/31 13:18:23;;;;;;;5.22;1.02;;;28.90;56.20;;;;;;4769533;30;20232;-71
2022/08/31 13:21:02;;;;;;;1.15;0.80;;;28.20;55.30;;;;;;4754411;30;20205;-74
2022/08/31 13:23:37;;;;;;;0.75;0.68;;;27.80;55.90;;;;;;4769303;30;20219;-75
2022/08/31 13:26:21;;;;;;;1.08;0.60;;;28.00;56.30;;;;;;4754649;30;20299;-76
2022/08/31 13:28:54;;;;;;;2.88;0.73;;;27.90;56.60;;;;;;4739794;30;20616;-77
2022/08/31 13:31:47;;;;;;;0.98;0.60;;;28.00;55.90;;;;;;4819757;29;20280;-74
2022/08/31 13:34:40;;;;;;;2.38;0.70;;;28.00;55.50;;;;;;4822083;29;20191;-75
2022/08/31 13:37:21;;;;;;;0.90;0.68;;;28.00;55.50;;;;;;4819487;29;20195;-73
2022/08/31 13:39:48;;;;;;;0.90;0.63;;;27.90;55.90;;;;;;4822471;29;20226;-76
2022/08/31 13:42:52;;;;;;;2.42;0.60;;;27.60;57.50;;;;;;4825260;29;20222;-77